Warsaw, IN

6:12 PM EST on February 09, 2016 (GMT -0500)
Winona Lake | | Change Station
CLOSE
Current Station
Personal Weather Station
Location: Winona Lake, IN
Elevation: 820 ft
Nearby Weather Stations

Elev 820 ft 41.22 °N, 85.82 °W | Updated 8 minutes ago

Snow
Snow
21.2 °F
Feels Like 10 °F
N
11.0
Wind Variable Wind from WNW
Gusts 18.0 mph

Today
High -- | Low -- °F
--% Chance of Precip.
Yesterday
High -- | Low -- °F
Precip. -- in
Pressure 29.82 in
Visibility 7.0 miles
Clouds Scattered Clouds 1700 ft
Scattered Clouds 2700 ft
Overcast 3700 ft
Windchill 10 °F
Dew Point 18 °F
Humidity 87%
Rainfall 0.00 in
Snow Depth Not available.
7:46 AM 6:09 PM
New Moon, 2% visible
METAR KASW 092255Z AUTO 29013G18KT 7SM -SN SCT017 SCT027 OVC037 M06/M09 A2982 RMK AO2
Pressure 29.82 in
Visibility 7.0 miles
Clouds Scattered Clouds 1700 ft
Scattered Clouds 2700 ft
Overcast 3700 ft
Windchill 10 °F
Dew Point 18 °F
Humidity 87%
Rainfall 0.00 in
Snow Depth Not available.
7:46 AM 6:09 PM
New Moon, 2% visible
METAR KASW 092255Z AUTO 29013G18KT 7SM -SN SCT017 SCT027 OVC037 M06/M09 A2982 RMK AO2

10-Day Weather Forecast

Almanac

Astronomy

Feb. 09, 2016 Rise Set
Actual Time
Civil Twilight
Nautical Twilight
Astronomical Twilight
Moon
Length of Visible Light
Length of Day
Tomorrow will be .
, % of the Moon is Illuminated

Today's Extremes

State Highs State Lows

Community

WunderPhotos

Upload Photos

1,891,728 photos uploaded!

WunderBlog® & News

Nearby

Air Quality

  Air Quality AQ Index Pollutant
Not available.

Snow Depth

Station Depth Elevation

Earthquake Activity

City Distance Mag. Time & Date
Minimum magnitude displayed is 2.5.

Coastal Water Temperatures

Place Temperature

Stations

Nearby Weather Stations

Station Location Temp. Windchill Dew Point Humidity Wind Precip. Elev Updated Type
                   

Watches & Warnings

There are currently no watches in effect.